sensor_id;sensor_type;location;lat;lon;timestamp;P1;durP1;ratioP1;P2;durP2;ratioP2
48534;SDS011;34323;52.022;5.686;2023-10-13T00:02:03;21.70;;;13.88;;
48534;SDS011;34323;52.022;5.686;2023-10-13T00:04:34;24.08;;;13.82;;
48534;SDS011;34323;52.022;5.686;2023-10-13T00:07:11;26.33;;;14.45;;
48534;SDS011;34323;52.022;5.686;2023-10-13T00:09:36;21.27;;;14.80;;
48534;SDS011;34323;52.022;5.686;2023-10-13T00:12:09;22.88;;;15.02;;
48534;SDS011;34323;52.022;5.686;2023-10-13T00:14:51;24.10;;;14.65;;
48534;SDS011;34323;52.022;5.686;2023-10-13T00:17:18;29.58;;;14.50;;
48534;SDS011;34323;52.022;5.686;2023-10-13T00:19:49;21.13;;;14.27;;
48534;SDS011;34323;52.022;5.686;2023-10-13T00:22:18;23.90;;;14.38;;
48534;SDS011;34323;52.022;5.686;2023-10-13T00:24:45;24.58;;;14.43;;
48534;SDS011;34323;52.022;5.686;2023-10-13T00:27:17;21.05;;;14.25;;
48534;SDS011;34323;52.022;5.686;2023-10-13T00:30:09;22.45;;;14.63;;
48534;SDS011;34323;52.022;5.686;2023-10-13T00:32:51;22.42;;;13.65;;
48534;SDS011;34323;52.022;5.686;2023-10-13T00:35:25;20.02;;;12.30;;
48534;SDS011;34323;52.022;5.686;2023-10-13T00:38:03;22.00;;;14.05;;
48534;SDS011;34323;52.022;5.686;2023-10-13T00:40:40;25.98;;;13.48;;
48534;SDS011;34323;52.022;5.686;2023-10-13T00:43:10;17.20;;;12.73;;
48534;SDS011;34323;52.022;5.686;2023-10-13T00:45:45;24.23;;;13.18;;
48534;SDS011;34323;52.022;5.686;2023-10-13T00:48:22;20.58;;;13.40;;
48534;SDS011;34323;52.022;5.686;2023-10-13T00:50:54;21.17;;;11.85;;
48534;SDS011;34323;52.022;5.686;2023-10-13T00:53:33;24.38;;;13.65;;
48534;SDS011;34323;52.022;5.686;2023-10-13T00:56:09;20.17;;;12.68;;
48534;SDS011;34323;52.022;5.686;2023-10-13T00:58:44;20.23;;;12.57;;
48534;SDS011;34323;52.022;5.686;2023-10-13T01:01:16;17.67;;;12.57;;
48534;SDS011;34323;52.022;5.686;2023-10-13T01:03:57;19.38;;;12.77;;
48534;SDS011;34323;52.022;5.686;2023-10-13T01:06:26;17.33;;;11.93;;
48534;SDS011;34323;52.022;5.686;2023-10-13T01:09:00;20.15;;;11.88;;
48534;SDS011;34323;52.022;5.686;2023-10-13T01:11:46;19.35;;;11.02;;
48534;SDS011;34323;52.022;5.686;2023-10-13T01:14:19;21.05;;;11.63;;
48534;SDS011;34323;52.022;5.686;2023-10-13T01:16:46;16.52;;;11.65;;
48534;SDS011;34323;52.022;5.686;2023-10-13T01:19:16;24.10;;;12.25;;
48534;SDS011;34323;52.022;5.686;2023-10-13T01:21:44;21.52;;;11.95;;
48534;SDS011;34323;52.022;5.686;2023-10-13T01:24:13;17.00;;;11.68;;
48534;SDS011;34323;52.022;5.686;2023-10-13T01:26:47;17.42;;;11.95;;
48534;SDS011;34323;52.022;5.686;2023-10-13T01:29:19;17.55;;;11.07;;
48534;SDS011;34323;52.022;5.686;2023-10-13T01:31:53;17.98;;;12.02;;
48534;SDS011;34323;52.022;5.686;2023-10-13T01:34:22;24.02;;;11.73;;
48534;SDS011;34323;52.022;5.686;2023-10-13T01:36:48;17.67;;;11.82;;
48534;SDS011;34323;52.022;5.686;2023-10-13T01:39:27;21.90;;;11.82;;
48534;SDS011;34323;52.022;5.686;2023-10-13T01:41:56;18.55;;;11.80;;
48534;SDS011;34323;52.022;5.686;2023-10-13T01:44:22;18.08;;;10.80;;
48534;SDS011;34323;52.022;5.686;2023-10-13T01:46:53;17.73;;;11.52;;
48534;SDS011;34323;52.022;5.686;2023-10-13T01:49:19;16.98;;;11.18;;
48534;SDS011;34323;52.022;5.686;2023-10-13T01:51:47;23.52;;;12.55;;
48534;SDS011;34323;52.022;5.686;2023-10-13T01:54:13;19.02;;;11.32;;
48534;SDS011;34323;52.022;5.686;2023-10-13T01:56:40;23.13;;;11.57;;
48534;SDS011;34323;52.022;5.686;2023-10-13T01:59:12;13.23;;;9.88;;
48534;SDS011;34323;52.022;5.686;2023-10-13T02:01:38;16.95;;;10.73;;
48534;SDS011;34323;52.022;5.686;2023-10-13T02:04:09;21.85;;;11.55;;
48534;SDS011;34323;52.022;5.686;2023-10-13T02:06:35;15.18;;;10.23;;
48534;SDS011;34323;52.022;5.686;2023-10-13T02:09:08;16.75;;;10.38;;
48534;SDS011;34323;52.022;5.686;2023-10-13T02:11:50;18.55;;;10.05;;
48534;SDS011;34323;52.022;5.686;2023-10-13T02:14:22;14.77;;;9.70;;
48534;SDS011;34323;52.022;5.686;2023-10-13T02:16:53;18.75;;;9.05;;
48534;SDS011;34323;52.022;5.686;2023-10-13T02:19:37;22.67;;;10.63;;
48534;SDS011;34323;52.022;5.686;2023-10-13T02:22:07;16.17;;;9.88;;
48534;SDS011;34323;52.022;5.686;2023-10-13T02:24:38;16.38;;;9.57;;
48534;SDS011;34323;52.022;5.686;2023-10-13T02:27:11;19.67;;;10.40;;
48534;SDS011;34323;52.022;5.686;2023-10-13T02:29:49;14.93;;;9.95;;
48534;SDS011;34323;52.022;5.686;2023-10-13T02:32:26;18.60;;;8.75;;
48534;SDS011;34323;52.022;5.686;2023-10-13T02:34:54;16.83;;;8.88;;
48534;SDS011;34323;52.022;5.686;2023-10-13T02:37:33;18.23;;;9.25;;
48534;SDS011;34323;52.022;5.686;2023-10-13T02:40:14;15.90;;;9.23;;
48534;SDS011;34323;52.022;5.686;2023-10-13T02:42:48;13.20;;;8.98;;
48534;SDS011;34323;52.022;5.686;2023-10-13T02:45:24;14.05;;;8.23;;
48534;SDS011;34323;52.022;5.686;2023-10-13T02:47:50;17.45;;;8.98;;
48534;SDS011;34323;52.022;5.686;2023-10-13T02:50:35;12.77;;;7.72;;
48534;SDS011;34323;52.022;5.686;2023-10-13T02:53:09;12.15;;;8.25;;
48534;SDS011;34323;52.022;5.686;2023-10-13T02:56:02;20.75;;;8.68;;
48534;SDS011;34323;52.022;5.686;2023-10-13T02:58:35;12.75;;;7.22;;
48534;SDS011;34323;52.022;5.686;2023-10-13T03:01:13;10.95;;;6.82;;
48534;SDS011;34323;52.022;5.686;2023-10-13T03:03:47;13.07;;;7.00;;
48534;SDS011;34323;52.022;5.686;2023-10-13T03:06:23;13.75;;;6.95;;
48534;SDS011;34323;52.022;5.686;2023-10-13T03:08:57;13.48;;;7.57;;
48534;SDS011;34323;52.022;5.686;2023-10-13T03:11:41;14.32;;;6.65;;
48534;SDS011;34323;52.022;5.686;2023-10-13T03:14:15;14.43;;;7.15;;
48534;SDS011;34323;52.022;5.686;2023-10-13T03:19:30;17.13;;;7.95;;
48534;SDS011;34323;52.022;5.686;2023-10-13T03:22:10;12.90;;;6.40;;
48534;SDS011;34323;52.022;5.686;2023-10-13T03:24:41;10.32;;;5.70;;
48534;SDS011;34323;52.022;5.686;2023-10-13T03:27:19;12.02;;;5.93;;
48534;SDS011;34323;52.022;5.686;2023-10-13T03:29:52;16.55;;;5.72;;
48534;SDS011;34323;52.022;5.686;2023-10-13T03:32:40;11.93;;;5.32;;
48534;SDS011;34323;52.022;5.686;2023-10-13T03:35:16;9.30;;;5.22;;
48534;SDS011;34323;52.022;5.686;2023-10-13T03:37:55;11.60;;;5.50;;
48534;SDS011;34323;52.022;5.686;2023-10-13T03:40:24;13.30;;;6.60;;
48534;SDS011;34323;52.022;5.686;2023-10-13T03:42:50;11.52;;;6.40;;
48534;SDS011;34323;52.022;5.686;2023-10-13T03:45:38;10.73;;;6.47;;
48534;SDS011;34323;52.022;5.686;2023-10-13T03:48:08;11.07;;;6.20;;
48534;SDS011;34323;52.022;5.686;2023-10-13T03:50:57;12.32;;;5.55;;
48534;SDS011;34323;52.022;5.686;2023-10-13T03:53:50;14.43;;;6.22;;
48534;SDS011;34323;52.022;5.686;2023-10-13T03:56:20;9.88;;;5.47;;
48534;SDS011;34323;52.022;5.686;2023-10-13T03:58:55;13.30;;;6.05;;
48534;SDS011;34323;52.022;5.686;2023-10-13T04:01:31;10.15;;;6.13;;
48534;SDS011;34323;52.022;5.686;2023-10-13T04:04:22;15.40;;;6.30;;
48534;SDS011;34323;52.022;5.686;2023-10-13T04:07:15;12.05;;;6.20;;
48534;SDS011;34323;52.022;5.686;2023-10-13T04:09:59;14.73;;;7.07;;
48534;SDS011;34323;52.022;5.686;2023-10-13T04:12:43;12.73;;;6.30;;
48534;SDS011;34323;52.022;5.686;2023-10-13T04:15:30;16.45;;;6.57;;
48534;SDS011;34323;52.022;5.686;2023-10-13T04:18:32;12.07;;;5.93;;
48534;SDS011;34323;52.022;5.686;2023-10-13T04:21:24;16.75;;;7.10;;
48534;SDS011;34323;52.022;5.686;2023-10-13T04:24:08;20.23;;;7.50;;
48534;SDS011;34323;52.022;5.686;2023-10-13T04:26:44;10.50;;;6.63;;
48534;SDS011;34323;52.022;5.686;2023-10-13T04:29:32;10.88;;;6.43;;
48534;SDS011;34323;52.022;5.686;2023-10-13T04:32:16;14.35;;;6.68;;
48534;SDS011;34323;52.022;5.686;2023-10-13T04:34:59;11.93;;;6.47;;
48534;SDS011;34323;52.022;5.686;2023-10-13T04:37:54;9.73;;;5.95;;
48534;SDS011;34323;52.022;5.686;2023-10-13T04:40:26;14.48;;;7.45;;
48534;SDS011;34323;52.022;5.686;2023-10-13T04:43:00;15.30;;;7.38;;
48534;SDS011;34323;52.022;5.686;2023-10-13T04:45:46;10.32;;;6.30;;
48534;SDS011;34323;52.022;5.686;2023-10-13T04:48:21;15.75;;;7.20;;
48534;SDS011;34323;52.022;5.686;2023-10-13T04:50:47;13.43;;;7.32;;
48534;SDS011;34323;52.022;5.686;2023-10-13T04:53:22;13.98;;;7.93;;
48534;SDS011;34323;52.022;5.686;2023-10-13T04:56:20;12.40;;;7.97;;
48534;SDS011;34323;52.022;5.686;2023-10-13T04:59:08;16.42;;;9.20;;
48534;SDS011;34323;52.022;5.686;2023-10-13T05:01:45;15.40;;;10.45;;
48534;SDS011;34323;52.022;5.686;2023-10-13T05:04:49;18.95;;;10.40;;
48534;SDS011;34323;52.022;5.686;2023-10-13T05:07:31;19.05;;;11.18;;
48534;SDS011;34323;52.022;5.686;2023-10-13T05:10:20;23.23;;;11.75;;
48534;SDS011;34323;52.022;5.686;2023-10-13T05:13:07;25.95;;;13.38;;
48534;SDS011;34323;52.022;5.686;2023-10-13T05:15:51;19.17;;;13.15;;
48534;SDS011;34323;52.022;5.686;2023-10-13T05:18:36;19.98;;;13.13;;
48534;SDS011;34323;52.022;5.686;2023-10-13T05:21:20;23.85;;;14.30;;
48534;SDS011;34323;52.022;5.686;2023-10-13T05:24:08;19.95;;;13.30;;
48534;SDS011;34323;52.022;5.686;2023-10-13T05:26:54;27.67;;;12.32;;
48534;SDS011;34323;52.022;5.686;2023-10-13T05:29:42;19.17;;;11.52;;
48534;SDS011;34323;52.022;5.686;2023-10-13T05:32:27;23.02;;;13.02;;
48534;SDS011;34323;52.022;5.686;2023-10-13T05:35:12;23.30;;;11.82;;
48534;SDS011;34323;52.022;5.686;2023-10-13T05:37:56;15.98;;;10.13;;
48534;SDS011;34323;52.022;5.686;2023-10-13T05:41:02;17.95;;;10.82;;
48534;SDS011;34323;52.022;5.686;2023-10-13T05:47:23;18.05;;;9.80;;
48534;SDS011;34323;52.022;5.686;2023-10-13T05:50:10;19.08;;;9.15;;
48534;SDS011;34323;52.022;5.686;2023-10-13T05:52:45;14.98;;;8.93;;
48534;SDS011;34323;52.022;5.686;2023-10-13T05:55:22;14.00;;;7.88;;
48534;SDS011;34323;52.022;5.686;2023-10-13T05:58:17;13.20;;;7.55;;
48534;SDS011;34323;52.022;5.686;2023-10-13T06:01:02;14.20;;;8.07;;
48534;SDS011;34323;52.022;5.686;2023-10-13T06:03:48;15.05;;;7.22;;
48534;SDS011;34323;52.022;5.686;2023-10-13T06:06:35;12.90;;;6.90;;
48534;SDS011;34323;52.022;5.686;2023-10-13T06:09:19;14.18;;;6.32;;
48534;SDS011;34323;52.022;5.686;2023-10-13T06:12:06;12.25;;;7.03;;
48534;SDS011;34323;52.022;5.686;2023-10-13T06:14:50;16.88;;;6.32;;
48534;SDS011;34323;52.022;5.686;2023-10-13T06:17:34;11.57;;;6.07;;
48534;SDS011;34323;52.022;5.686;2023-10-13T06:20:18;13.45;;;6.53;;
48534;SDS011;34323;52.022;5.686;2023-10-13T06:23:02;12.00;;;7.20;;
48534;SDS011;34323;52.022;5.686;2023-10-13T06:25:50;11.43;;;7.80;;
48534;SDS011;34323;52.022;5.686;2023-10-13T06:28:35;15.63;;;6.85;;
48534;SDS011;34323;52.022;5.686;2023-10-13T06:31:07;12.45;;;7.68;;
48534;SDS011;34323;52.022;5.686;2023-10-13T06:33:37;11.70;;;7.38;;
48534;SDS011;34323;52.022;5.686;2023-10-13T06:36:10;11.50;;;7.30;;
48534;SDS011;34323;52.022;5.686;2023-10-13T06:38:36;15.27;;;7.20;;
48534;SDS011;34323;52.022;5.686;2023-10-13T06:41:03;11.40;;;7.00;;
48534;SDS011;34323;52.022;5.686;2023-10-13T06:43:32;10.82;;;7.20;;
48534;SDS011;34323;52.022;5.686;2023-10-13T06:46:05;12.65;;;6.60;;
48534;SDS011;34323;52.022;5.686;2023-10-13T06:48:32;9.70;;;6.78;;
48534;SDS011;34323;52.022;5.686;2023-10-13T06:51:02;12.00;;;7.35;;
48534;SDS011;34323;52.022;5.686;2023-10-13T06:53:51;14.98;;;7.78;;
48534;SDS011;34323;52.022;5.686;2023-10-13T06:56:21;12.85;;;6.93;;
48534;SDS011;34323;52.022;5.686;2023-10-13T06:58:52;11.20;;;6.97;;
48534;SDS011;34323;52.022;5.686;2023-10-13T07:01:24;15.30;;;8.18;;
48534;SDS011;34323;52.022;5.686;2023-10-13T07:03:52;11.45;;;7.97;;
48534;SDS011;34323;52.022;5.686;2023-10-13T07:06:21;10.23;;;6.78;;
48534;SDS011;34323;52.022;5.686;2023-10-13T07:08:47;13.13;;;6.95;;
48534;SDS011;34323;52.022;5.686;2023-10-13T07:11:17;12.40;;;7.18;;
48534;SDS011;34323;52.022;5.686;2023-10-13T07:14:04;14.45;;;6.53;;
48534;SDS011;34323;52.022;5.686;2023-10-13T07:19:23;13.18;;;6.82;;
48534;SDS011;34323;52.022;5.686;2023-10-13T07:24:56;9.55;;;6.05;;
48534;SDS011;34323;52.022;5.686;2023-10-13T07:27:23;13.73;;;6.97;;
48534;SDS011;34323;52.022;5.686;2023-10-13T07:29:50;11.68;;;6.78;;
48534;SDS011;34323;52.022;5.686;2023-10-13T07:32:21;10.93;;;6.22;;
48534;SDS011;34323;52.022;5.686;2023-10-13T07:37:21;14.48;;;6.88;;
48534;SDS011;34323;52.022;5.686;2023-10-13T07:39:53;9.80;;;5.93;;
48534;SDS011;34323;52.022;5.686;2023-10-13T07:42:22;19.25;;;6.72;;
48534;SDS011;34323;52.022;5.686;2023-10-13T07:44:55;12.32;;;6.53;;
48534;SDS011;34323;52.022;5.686;2023-10-13T07:47:23;15.30;;;6.90;;
48534;SDS011;34323;52.022;5.686;2023-10-13T07:49:51;14.95;;;6.57;;
48534;SDS011;34323;52.022;5.686;2023-10-13T07:52:17;15.38;;;6.35;;
48534;SDS011;34323;52.022;5.686;2023-10-13T07:54:46;16.95;;;7.43;;
48534;SDS011;34323;52.022;5.686;2023-10-13T07:57:46;18.65;;;6.47;;
48534;SDS011;34323;52.022;5.686;2023-10-13T08:00:24;17.95;;;7.68;;
48534;SDS011;34323;52.022;5.686;2023-10-13T08:03:03;15.25;;;6.95;;
48534;SDS011;34323;52.022;5.686;2023-10-13T08:05:41;14.90;;;6.82;;
48534;SDS011;34323;52.022;5.686;2023-10-13T08:08:23;19.30;;;7.10;;
48534;SDS011;34323;52.022;5.686;2023-10-13T08:11:05;14.27;;;7.20;;
48534;SDS011;34323;52.022;5.686;2023-10-13T08:13:58;17.33;;;6.28;;
48534;SDS011;34323;52.022;5.686;2023-10-13T08:16:28;19.92;;;7.38;;
48534;SDS011;34323;52.022;5.686;2023-10-13T08:19:11;16.98;;;6.80;;
48534;SDS011;34323;52.022;5.686;2023-10-13T08:21:40;14.65;;;7.78;;
48534;SDS011;34323;52.022;5.686;2023-10-13T08:24:28;22.50;;;7.40;;
48534;SDS011;34323;52.022;5.686;2023-10-13T08:27:15;18.75;;;6.82;;
48534;SDS011;34323;52.022;5.686;2023-10-13T08:29:59;15.55;;;7.40;;
48534;SDS011;34323;52.022;5.686;2023-10-13T08:32:44;18.15;;;7.50;;
48534;SDS011;34323;52.022;5.686;2023-10-13T08:35:30;14.15;;;6.50;;
48534;SDS011;34323;52.022;5.686;2023-10-13T08:37:59;11.05;;;5.85;;
48534;SDS011;34323;52.022;5.686;2023-10-13T08:40:29;16.77;;;6.75;;
48534;SDS011;34323;52.022;5.686;2023-10-13T08:43:12;22.95;;;7.90;;
48534;SDS011;34323;52.022;5.686;2023-10-13T08:45:41;18.98;;;6.30;;
48534;SDS011;34323;52.022;5.686;2023-10-13T08:48:09;19.80;;;7.03;;
48534;SDS011;34323;52.022;5.686;2023-10-13T09:04:35;14.90;;;5.10;;
48534;SDS011;34323;52.022;5.686;2023-10-13T09:07:03;14.05;;;5.28;;
48534;SDS011;34323;52.022;5.686;2023-10-13T09:12:19;16.15;;;5.22;;
48534;SDS011;34323;52.022;5.686;2023-10-13T09:15:01;17.45;;;5.43;;
48534;SDS011;34323;52.022;5.686;2023-10-13T09:17:50;23.08;;;5.70;;
48534;SDS011;34323;52.022;5.686;2023-10-13T09:20:16;12.70;;;4.55;;
48534;SDS011;34323;52.022;5.686;2023-10-13T09:25:36;16.23;;;5.72;;
48534;SDS011;34323;52.022;5.686;2023-10-13T09:28:10;10.07;;;4.88;;
48534;SDS011;34323;52.022;5.686;2023-10-13T09:30:46;17.90;;;4.90;;
48534;SDS011;34323;52.022;5.686;2023-10-13T09:33:13;13.32;;;5.60;;
48534;SDS011;34323;52.022;5.686;2023-10-13T09:36:01;17.50;;;6.10;;
48534;SDS011;34323;52.022;5.686;2023-10-13T09:38:35;25.30;;;6.88;;
48534;SDS011;34323;52.022;5.686;2023-10-13T09:41:05;20.85;;;6.80;;
48534;SDS011;34323;52.022;5.686;2023-10-13T09:43:45;13.32;;;5.40;;
48534;SDS011;34323;52.022;5.686;2023-10-13T09:46:12;14.98;;;5.93;;
48534;SDS011;34323;52.022;5.686;2023-10-13T09:51:15;25.33;;;5.88;;
48534;SDS011;34323;52.022;5.686;2023-10-13T09:53:52;13.57;;;5.25;;
48534;SDS011;34323;52.022;5.686;2023-10-13T09:56:27;16.75;;;4.68;;
48534;SDS011;34323;52.022;5.686;2023-10-13T10:01:33;16.08;;;5.72;;
48534;SDS011;34323;52.022;5.686;2023-10-13T10:04:16;11.80;;;5.25;;
48534;SDS011;34323;52.022;5.686;2023-10-13T10:06:53;15.57;;;5.80;;
48534;SDS011;34323;52.022;5.686;2023-10-13T10:09:19;12.70;;;5.53;;
48534;SDS011;34323;52.022;5.686;2023-10-13T10:12:09;25.00;;;5.78;;
48534;SDS011;34323;52.022;5.686;2023-10-13T10:18:03;16.80;;;6.20;;
48534;SDS011;34323;52.022;5.686;2023-10-13T10:20:30;13.95;;;4.95;;
48534;SDS011;34323;52.022;5.686;2023-10-13T10:23:10;16.35;;;5.88;;
48534;SDS011;34323;52.022;5.686;2023-10-13T10:25:51;20.45;;;6.22;;
48534;SDS011;34323;52.022;5.686;2023-10-13T10:28:34;13.85;;;5.30;;
48534;SDS011;34323;52.022;5.686;2023-10-13T10:31:04;13.55;;;5.80;;
48534;SDS011;34323;52.022;5.686;2023-10-13T10:33:34;19.30;;;5.68;;
48534;SDS011;34323;52.022;5.686;2023-10-13T10:36:00;16.23;;;5.20;;
48534;SDS011;34323;52.022;5.686;2023-10-13T10:38:27;19.48;;;5.28;;
48534;SDS011;34323;52.022;5.686;2023-10-13T10:40:56;22.75;;;5.80;;
48534;SDS011;34323;52.022;5.686;2023-10-13T10:46:46;15.40;;;6.03;;
48534;SDS011;34323;52.022;5.686;2023-10-13T10:49:07;12.00;;;5.65;;
48534;SDS011;34323;52.022;5.686;2023-10-13T10:51:33;12.57;;;6.00;;
48534;SDS011;34323;52.022;5.686;2023-10-13T10:54:17;19.25;;;6.03;;
48534;SDS011;34323;52.022;5.686;2023-10-13T10:56:44;13.80;;;5.60;;
48534;SDS011;34323;52.022;5.686;2023-10-13T10:59:17;18.80;;;5.47;;
48534;SDS011;34323;52.022;5.686;2023-10-13T11:01:45;21.95;;;5.97;;
48534;SDS011;34323;52.022;5.686;2023-10-13T11:04:17;15.02;;;5.47;;
48534;SDS011;34323;52.022;5.686;2023-10-13T11:06:47;18.08;;;4.85;;
48534;SDS011;34323;52.022;5.686;2023-10-13T11:09:30;16.65;;;6.28;;
48534;SDS011;34323;52.022;5.686;2023-10-13T11:14:41;20.45;;;6.07;;
48534;SDS011;34323;52.022;5.686;2023-10-13T11:17:18;12.07;;;4.25;;
48534;SDS011;34323;52.022;5.686;2023-10-13T11:19:51;12.32;;;4.82;;
48534;SDS011;34323;52.022;5.686;2023-10-13T11:22:18;19.55;;;5.00;;
48534;SDS011;34323;52.022;5.686;2023-10-13T11:24:57;12.25;;;5.70;;
48534;SDS011;34323;52.022;5.686;2023-10-13T11:27:42;15.93;;;5.10;;
48534;SDS011;34323;52.022;5.686;2023-10-13T11:30:11;11.40;;;4.80;;
48534;SDS011;34323;52.022;5.686;2023-10-13T11:32:40;16.02;;;4.75;;
48534;SDS011;34323;52.022;5.686;2023-10-13T11:35:10;15.00;;;5.30;;
48534;SDS011;34323;52.022;5.686;2023-10-13T11:37:49;14.35;;;5.45;;
48534;SDS011;34323;52.022;5.686;2023-10-13T11:40:22;15.57;;;5.57;;
48534;SDS011;34323;52.022;5.686;2023-10-13T11:43:08;19.13;;;5.22;;
48534;SDS011;34323;52.022;5.686;2023-10-13T11:45:47;21.48;;;6.40;;
48534;SDS011;34323;52.022;5.686;2023-10-13T11:48:22;12.48;;;5.53;;
48534;SDS011;34323;52.022;5.686;2023-10-13T11:50:59;18.15;;;5.43;;
48534;SDS011;34323;52.022;5.686;2023-10-13T11:53:26;17.13;;;5.63;;
48534;SDS011;34323;52.022;5.686;2023-10-13T11:55:54;22.10;;;6.38;;
48534;SDS011;34323;52.022;5.686;2023-10-13T11:58:21;14.80;;;6.60;;
48534;SDS011;34323;52.022;5.686;2023-10-13T12:00:46;18.60;;;5.95;;
48534;SDS011;34323;52.022;5.686;2023-10-13T12:03:31;22.98;;;6.15;;
48534;SDS011;34323;52.022;5.686;2023-10-13T12:06:15;19.67;;;6.30;;
48534;SDS011;34323;52.022;5.686;2023-10-13T12:08:59;10.95;;;5.70;;
48534;SDS011;34323;52.022;5.686;2023-10-13T12:11:39;14.57;;;5.88;;
48534;SDS011;34323;52.022;5.686;2023-10-13T12:14:07;20.15;;;5.57;;
48534;SDS011;34323;52.022;5.686;2023-10-13T12:16:56;17.95;;;5.55;;
48534;SDS011;34323;52.022;5.686;2023-10-13T12:19:28;21.23;;;6.18;;
48534;SDS011;34323;52.022;5.686;2023-10-13T12:21:55;17.50;;;7.30;;
48534;SDS011;34323;52.022;5.686;2023-10-13T12:27:04;21.70;;;6.95;;
48534;SDS011;34323;52.022;5.686;2023-10-13T12:29:46;20.13;;;5.72;;
48534;SDS011;34323;52.022;5.686;2023-10-13T12:32:12;17.95;;;5.47;;
48534;SDS011;34323;52.022;5.686;2023-10-13T12:34:39;13.82;;;5.38;;
48534;SDS011;34323;52.022;5.686;2023-10-13T12:37:25;17.45;;;5.72;;
48534;SDS011;34323;52.022;5.686;2023-10-13T12:40:19;15.88;;;6.28;;
48534;SDS011;34323;52.022;5.686;2023-10-13T12:43:04;16.63;;;5.40;;
48534;SDS011;34323;52.022;5.686;2023-10-13T12:45:49;16.63;;;5.88;;
48534;SDS011;34323;52.022;5.686;2023-10-13T12:48:35;27.73;;;7.20;;
48534;SDS011;34323;52.022;5.686;2023-10-13T12:51:20;17.52;;;6.15;;
48534;SDS011;34323;52.022;5.686;2023-10-13T12:53:56;17.40;;;5.60;;
48534;SDS011;34323;52.022;5.686;2023-10-13T12:56:30;17.17;;;5.68;;
48534;SDS011;34323;52.022;5.686;2023-10-13T12:58:56;16.30;;;5.88;;
48534;SDS011;34323;52.022;5.686;2023-10-13T13:01:23;13.63;;;5.45;;
48534;SDS011;34323;52.022;5.686;2023-10-13T13:03:53;22.40;;;6.88;;
48534;SDS011;34323;52.022;5.686;2023-10-13T13:06:21;16.50;;;5.72;;
48534;SDS011;34323;52.022;5.686;2023-10-13T13:08:51;17.38;;;6.32;;
48534;SDS011;34323;52.022;5.686;2023-10-13T13:11:25;19.42;;;6.22;;
48534;SDS011;34323;52.022;5.686;2023-10-13T13:13:53;22.27;;;6.70;;
48534;SDS011;34323;52.022;5.686;2023-10-13T13:16:19;17.63;;;5.90;;
48534;SDS011;34323;52.022;5.686;2023-10-13T13:18:52;21.73;;;6.47;;
48534;SDS011;34323;52.022;5.686;2023-10-13T13:21:20;12.80;;;5.25;;
48534;SDS011;34323;52.022;5.686;2023-10-13T13:23:48;18.63;;;5.97;;
48534;SDS011;34323;52.022;5.686;2023-10-13T13:26:14;18.83;;;5.95;;
48534;SDS011;34323;52.022;5.686;2023-10-13T13:28:47;20.75;;;5.47;;
48534;SDS011;34323;52.022;5.686;2023-10-13T13:31:17;21.52;;;6.13;;
48534;SDS011;34323;52.022;5.686;2023-10-13T13:33:43;21.55;;;6.43;;
48534;SDS011;34323;52.022;5.686;2023-10-13T13:36:09;15.45;;;6.05;;
48534;SDS011;34323;52.022;5.686;2023-10-13T13:38:39;12.40;;;6.00;;
48534;SDS011;34323;52.022;5.686;2023-10-13T13:41:11;13.73;;;6.03;;
48534;SDS011;34323;52.022;5.686;2023-10-13T13:43:40;18.25;;;5.25;;
48534;SDS011;34323;52.022;5.686;2023-10-13T13:46:19;22.40;;;6.53;;
48534;SDS011;34323;52.022;5.686;2023-10-13T13:48:50;15.90;;;7.05;;
48534;SDS011;34323;52.022;5.686;2023-10-13T13:51:23;16.67;;;6.47;;
48534;SDS011;34323;52.022;5.686;2023-10-13T13:53:52;12.73;;;6.68;;
48534;SDS011;34323;52.022;5.686;2023-10-13T13:56:19;19.10;;;5.90;;
48534;SDS011;34323;52.022;5.686;2023-10-13T13:58:46;18.33;;;5.97;;
48534;SDS011;34323;52.022;5.686;2023-10-13T14:01:13;11.32;;;5.85;;
48534;SDS011;34323;52.022;5.686;2023-10-13T14:03:46;17.17;;;6.05;;
48534;SDS011;34323;52.022;5.686;2023-10-13T14:06:18;17.83;;;6.35;;
48534;SDS011;34323;52.022;5.686;2023-10-13T14:08:50;20.25;;;5.95;;
48534;SDS011;34323;52.022;5.686;2023-10-13T14:11:20;26.52;;;5.20;;
48534;SDS011;34323;52.022;5.686;2023-10-13T14:14:04;16.88;;;6.75;;
48534;SDS011;34323;52.022;5.686;2023-10-13T14:16:53;17.08;;;6.47;;
48534;SDS011;34323;52.022;5.686;2023-10-13T14:19:27;19.13;;;5.55;;
48534;SDS011;34323;52.022;5.686;2023-10-13T14:21:56;11.23;;;5.78;;
48534;SDS011;34323;52.022;5.686;2023-10-13T14:24:23;16.75;;;6.38;;
48534;SDS011;34323;52.022;5.686;2023-10-13T14:26:56;19.20;;;5.75;;
48534;SDS011;34323;52.022;5.686;2023-10-13T14:29:46;24.83;;;6.05;;
48534;SDS011;34323;52.022;5.686;2023-10-13T14:32:13;17.20;;;5.80;;
48534;SDS011;34323;52.022;5.686;2023-10-13T14:34:43;13.88;;;5.40;;
48534;SDS011;34323;52.022;5.686;2023-10-13T14:37:10;14.55;;;5.30;;
48534;SDS011;34323;52.022;5.686;2023-10-13T14:39:42;20.25;;;6.53;;
48534;SDS011;34323;52.022;5.686;2023-10-13T14:42:08;19.90;;;5.57;;
48534;SDS011;34323;52.022;5.686;2023-10-13T14:44:34;14.50;;;5.78;;
48534;SDS011;34323;52.022;5.686;2023-10-13T14:47:00;25.95;;;5.50;;
48534;SDS011;34323;52.022;5.686;2023-10-13T14:49:27;17.45;;;6.85;;
48534;SDS011;34323;52.022;5.686;2023-10-13T14:51:52;20.48;;;6.15;;
48534;SDS011;34323;52.022;5.686;2023-10-13T14:54:20;16.17;;;5.85;;
48534;SDS011;34323;52.022;5.686;2023-10-13T14:57:00;15.55;;;6.28;;
48534;SDS011;34323;52.022;5.686;2023-10-13T14:59:27;14.85;;;5.75;;
48534;SDS011;34323;52.022;5.686;2023-10-13T15:01:58;14.35;;;6.32;;
48534;SDS011;34323;52.022;5.686;2023-10-13T15:04:28;15.50;;;5.90;;
48534;SDS011;34323;52.022;5.686;2023-10-13T15:06:57;16.52;;;6.57;;
48534;SDS011;34323;52.022;5.686;2023-10-13T15:09:27;31.33;;;7.18;;
48534;SDS011;34323;52.022;5.686;2023-10-13T15:11:53;16.38;;;6.43;;
48534;SDS011;34323;52.022;5.686;2023-10-13T15:14:19;15.27;;;6.15;;
48534;SDS011;34323;52.022;5.686;2023-10-13T15:16:45;14.70;;;5.75;;
48534;SDS011;34323;52.022;5.686;2023-10-13T15:19:13;15.00;;;5.68;;
48534;SDS011;34323;52.022;5.686;2023-10-13T15:21:41;25.50;;;7.13;;
48534;SDS011;34323;52.022;5.686;2023-10-13T15:24:08;17.17;;;6.63;;
48534;SDS011;34323;52.022;5.686;2023-10-13T15:26:46;15.32;;;5.95;;
48534;SDS011;34323;52.022;5.686;2023-10-13T15:29:16;19.40;;;5.75;;
48534;SDS011;34323;52.022;5.686;2023-10-13T15:31:43;17.35;;;5.63;;
48534;SDS011;34323;52.022;5.686;2023-10-13T15:34:29;16.77;;;5.70;;
48534;SDS011;34323;52.022;5.686;2023-10-13T15:36:56;11.95;;;5.25;;
48534;SDS011;34323;52.022;5.686;2023-10-13T15:39:23;17.50;;;5.35;;
48534;SDS011;34323;52.022;5.686;2023-10-13T15:41:51;16.27;;;5.90;;
48534;SDS011;34323;52.022;5.686;2023-10-13T15:44:18;11.15;;;4.88;;
48534;SDS011;34323;52.022;5.686;2023-10-13T15:46:45;16.08;;;6.28;;
48534;SDS011;34323;52.022;5.686;2023-10-13T15:49:15;24.63;;;7.05;;
48534;SDS011;34323;52.022;5.686;2023-10-13T15:51:41;16.80;;;5.78;;
48534;SDS011;34323;52.022;5.686;2023-10-13T15:54:07;13.40;;;6.05;;
48534;SDS011;34323;52.022;5.686;2023-10-13T15:56:45;13.63;;;5.38;;
48534;SDS011;34323;52.022;5.686;2023-10-13T15:59:12;18.67;;;5.22;;
48534;SDS011;34323;52.022;5.686;2023-10-13T16:01:38;16.63;;;5.80;;
48534;SDS011;34323;52.022;5.686;2023-10-13T16:04:05;9.85;;;4.95;;
48534;SDS011;34323;52.022;5.686;2023-10-13T16:06:46;17.80;;;5.53;;
48534;SDS011;34323;52.022;5.686;2023-10-13T16:09:12;17.58;;;5.55;;
48534;SDS011;34323;52.022;5.686;2023-10-13T16:11:48;21.38;;;6.22;;